createdAt,value
2017-07-09T00:00:43.590Z,41.4
2017-07-09T00:01:45.430Z,41.4
2017-07-09T00:02:43.690Z,41.5
2017-07-09T00:03:47.325Z,41.5
2017-07-09T00:04:47.083Z,41.5
2017-07-09T00:05:43.808Z,41.5
2017-07-09T00:06:47.365Z,41.5
2017-07-09T00:07:45.958Z,41.5
2017-07-09T00:08:47.496Z,41.5
2017-07-09T00:09:44.403Z,41.5
2017-07-09T00:10:44.332Z,41.5
2017-07-09T00:11:44.251Z,41.5
2017-07-09T00:12:44.389Z,41.5
2017-07-09T00:13:44.383Z,41.5
2017-07-09T00:14:44.516Z,41.5
2017-07-09T00:15:48.179Z,41.5
2017-07-09T00:16:44.511Z,41.5
2017-07-09T00:17:44.543Z,41.5
2017-07-09T00:18:44.562Z,41.5
2017-07-09T00:19:46.512Z,41.5
2017-07-09T00:20:46.667Z,41.5
2017-07-09T00:21:48.271Z,41.5
2017-07-09T00:22:44.798Z,41.5
2017-07-09T00:23:44.854Z,41.5
2017-07-09T00:24:44.799Z,41.5
2017-07-09T00:25:46.823Z,41.5
2017-07-09T00:26:44.925Z,41.5
2017-07-09T00:27:48.664Z,41.5
2017-07-09T00:28:45.012Z,41.5
2017-07-09T00:29:45.120Z,41.5
2017-07-09T00:30:45.166Z,41.5
2017-07-09T00:31:47.113Z,41.6
2017-07-09T00:32:48.611Z,41.6
2017-07-09T00:33:47.588Z,41.6
2017-07-09T00:34:45.419Z,41.6
2017-07-09T00:35:48.942Z,41.6
2017-07-09T00:36:45.577Z,41.6
2017-07-09T00:37:45.618Z,41.6
2017-07-09T00:38:48.877Z,41.6
2017-07-09T00:39:45.866Z,41.6
2017-07-09T00:40:45.672Z,41.7
2017-07-09T00:41:45.611Z,41.6
2017-07-09T00:42:49.099Z,41.7
2017-07-09T00:43:45.865Z,41.6
2017-07-09T00:44:45.878Z,41.7
2017-07-09T00:45:46.256Z,41.7
2017-07-09T00:46:49.337Z,41.6
2017-07-09T00:47:47.961Z,41.6
2017-07-09T00:48:45.960Z,41.6
2017-07-09T00:49:49.460Z,41.6
2017-07-09T00:50:46.239Z,41.7
2017-07-09T00:51:48.518Z,41.7
2017-07-09T00:52:46.264Z,41.7
2017-07-09T00:53:46.357Z,41.8
2017-07-09T00:54:48.347Z,41.8
2017-07-09T00:55:48.396Z,41.7
2017-07-09T00:56:46.514Z,41.7
2017-07-09T00:57:50.155Z,41.7
2017-07-09T00:58:48.560Z,41.7
2017-07-09T00:59:46.553Z,41.7
2017-07-09T01:00:46.635Z,41.7
2017-07-09T01:01:46.721Z,41.7
2017-07-09T01:02:46.760Z,41.7
2017-07-09T01:03:47.151Z,41.8
2017-07-09T01:04:50.092Z,41.8
2017-07-09T01:05:46.870Z,41.8
2017-07-09T01:06:48.839Z,41.8
2017-07-09T01:07:48.911Z,41.8
2017-07-09T01:08:47.019Z,41.8
2017-07-09T01:09:47.270Z,41.8
2017-07-09T01:10:49.007Z,41.8
2017-07-09T01:11:48.930Z,41.8
2017-07-09T01:12:47.117Z,41.8
2017-07-09T01:13:49.005Z,41.8
2017-07-09T01:14:47.670Z,41.8
2017-07-09T01:15:50.928Z,41.8
2017-07-09T01:16:47.508Z,41.8
2017-07-09T01:17:47.467Z,41.7
2017-07-09T01:18:47.554Z,41.8
2017-07-09T01:19:50.900Z,41.8
2017-07-09T01:20:51.051Z,41.8
2017-07-09T01:21:49.966Z,41.8
2017-07-09T01:22:47.806Z,41.8
2017-07-09T01:23:51.276Z,41.8
2017-07-09T01:24:49.777Z,41.8
2017-07-09T01:25:47.992Z,41.8
2017-07-09T01:26:48.045Z,41.8
2017-07-09T01:27:51.564Z,41.8
2017-07-09T01:28:47.968Z,41.8
2017-07-09T01:29:48.093Z,41.8
2017-07-09T01:30:50.083Z,41.8
2017-07-09T01:31:50.113Z,41.8
2017-07-09T01:32:48.444Z,41.8
2017-07-09T01:33:48.535Z,41.8
2017-07-09T01:34:48.251Z,41.8
2017-07-09T01:35:51.718Z,41.8
2017-07-09T01:36:51.731Z,41.9
2017-07-09T01:37:48.543Z,41.9
2017-07-09T01:38:50.436Z,41.9
2017-07-09T01:39:49.013Z,41.9
2017-07-09T01:40:50.485Z,41.9
2017-07-09T01:41:48.795Z,41.9
2017-07-09T01:42:48.709Z,41.9
2017-07-09T01:43:52.132Z,41.9
2017-07-09T01:44:50.724Z,41.8
2017-07-09T01:45:52.437Z,41.9
2017-07-09T01:46:50.807Z,41.9
2017-07-09T01:47:52.361Z,41.9
2017-07-09T01:48:49.017Z,41.9
2017-07-09T01:49:49.031Z,41.9
2017-07-09T01:50:51.101Z,41.9
2017-07-09T01:51:49.539Z,41.9
2017-07-09T01:52:52.583Z,41.9
2017-07-09T01:53:51.341Z,41.9
2017-07-09T01:54:52.873Z,41.9
2017-07-09T01:55:49.555Z,42
2017-07-09T01:56:49.573Z,42
2017-07-09T01:57:51.781Z,42
2017-07-09T01:58:49.652Z,42
2017-07-09T01:59:53.086Z,42
2017-07-09T02:00:49.888Z,42
2017-07-09T02:01:49.877Z,42
2017-07-09T02:02:51.975Z,42
2017-07-09T02:03:52.205Z,42
2017-07-09T02:04:50.070Z,42
2017-07-09T02:05:50.032Z,42
2017-07-09T02:06:50.149Z,42
2017-07-09T02:07:52.134Z,42
2017-07-09T02:08:50.256Z,41.9
2017-07-09T02:09:50.627Z,41.9
2017-07-09T02:10:53.711Z,41.9
2017-07-09T02:11:50.433Z,41.9
2017-07-09T02:12:50.470Z,41.9
2017-07-09T02:13:50.391Z,41.9
2017-07-09T02:14:50.563Z,41.8
2017-07-09T02:15:52.771Z,41.8
2017-07-09T02:16:50.601Z,41.8
2017-07-09T02:17:52.548Z,41.8
2017-07-09T02:18:50.772Z,41.8
2017-07-09T02:19:50.732Z,41.8
2017-07-09T02:20:54.097Z,41.8
2017-07-09T02:21:54.500Z,41.8
2017-07-09T02:22:50.959Z,41.8
2017-07-09T02:23:50.990Z,41.8
2017-07-09T02:24:51.060Z,41.7
2017-07-09T02:25:51.092Z,41.8
2017-07-09T02:26:51.233Z,41.7
2017-07-09T02:27:51.469Z,41.8
2017-07-09T02:28:51.311Z,41.7
2017-07-09T02:29:51.358Z,41.7
2017-07-09T02:30:54.739Z,41.7
2017-07-09T02:31:54.764Z,41.7
2017-07-09T02:32:51.322Z,41.7
2017-07-09T02:33:51.710Z,41.7
2017-07-09T02:34:54.849Z,41.7
2017-07-09T02:35:53.437Z,41.7
2017-07-09T02:36:51.530Z,41.7
2017-07-09T02:37:51.626Z,41.7
2017-07-09T02:38:53.644Z,41.6
2017-07-09T02:39:53.946Z,41.6
2017-07-09T02:40:51.720Z,41.6
2017-07-09T02:41:53.836Z,41.6
2017-07-09T02:42:51.930Z,41.6
2017-07-09T02:43:53.973Z,41.6
2017-07-09T02:44:55.215Z,41.6
2017-07-09T02:45:52.306Z,41.6
2017-07-09T02:46:55.384Z,41.6
2017-07-09T02:47:55.402Z,41.5
2017-07-09T02:48:55.484Z,41.5
2017-07-09T02:49:54.012Z,41.5
2017-07-09T02:50:54.102Z,41.5
2017-07-09T02:51:54.527Z,41.5
2017-07-09T02:52:52.333Z,41.5
2017-07-09T02:53:54.327Z,41.5
2017-07-09T02:54:52.426Z,41.5
2017-07-09T02:55:52.662Z,41.5
2017-07-09T02:56:52.671Z,41.5
2017-07-09T02:57:54.767Z,41.4
2017-07-09T02:58:54.601Z,41.4
2017-07-09T02:59:54.694Z,41.5
2017-07-09T03:00:54.727Z,41.5
2017-07-09T03:01:52.886Z,41.4
2017-07-09T03:02:52.866Z,41.5
2017-07-09T03:03:55.201Z,41.4
2017-07-09T03:04:52.965Z,41.4
2017-07-09T03:05:54.923Z,41.4
2017-07-09T03:06:52.933Z,41.5
2017-07-09T03:07:54.985Z,41.5
2017-07-09T03:08:56.434Z,41.4
2017-07-09T03:09:53.314Z,41.4
2017-07-09T03:10:53.135Z,41.3
2017-07-09T03:11:53.198Z,41.3
2017-07-09T03:12:53.313Z,41.3
2017-07-09T03:13:56.660Z,41.2
2017-07-09T03:14:53.407Z,41.1
2017-07-09T03:15:55.539Z,41.1
2017-07-09T03:16:56.726Z,41.1
2017-07-09T03:17:55.416Z,41.2
2017-07-09T03:18:53.577Z,41.2
2017-07-09T03:19:53.652Z,41.2
2017-07-09T03:20:55.633Z,41.2
2017-07-09T03:21:57.280Z,41.2
2017-07-09T03:22:53.652Z,41.2
2017-07-09T03:23:55.648Z,41.2
2017-07-09T03:24:57.078Z,41.1
2017-07-09T03:25:53.794Z,41.2
2017-07-09T03:26:53.917Z,41.1
2017-07-09T03:27:54.177Z,41.2
2017-07-09T03:28:54.000Z,41.2
2017-07-09T03:29:57.470Z,41.2
2017-07-09T03:30:54.203Z,41.2
2017-07-09T03:31:57.578Z,41.2
2017-07-09T03:32:57.594Z,41.2
2017-07-09T03:33:56.589Z,41.2
2017-07-09T03:34:54.248Z,41.2
2017-07-09T03:35:54.285Z,41.1
2017-07-09T03:36:57.769Z,41.1
2017-07-09T03:37:54.534Z,41.2
2017-07-09T03:38:54.511Z,41.2
2017-07-09T03:39:56.751Z,41.2
2017-07-09T03:40:54.563Z,41.2
2017-07-09T03:41:57.987Z,41.2
2017-07-09T03:42:58.583Z,41.1
2017-07-09T03:43:59.272Z,41.1
2017-07-09T03:44:54.759Z,41.1
2017-07-09T03:45:58.507Z,41.1
2017-07-09T03:46:58.295Z,41
2017-07-09T03:47:55.578Z,41
2017-07-09T03:48:58.470Z,41
2017-07-09T03:49:57.172Z,41
2017-07-09T03:50:55.286Z,41
2017-07-09T03:51:56.102Z,40.9
2017-07-09T03:52:55.293Z,40.9
2017-07-09T03:53:59.693Z,40.9
2017-07-09T03:54:55.534Z,40.9
2017-07-09T03:55:55.563Z,40.9
2017-07-09T03:56:55.503Z,40.9
2017-07-09T03:57:55.827Z,40.8
2017-07-09T03:58:55.695Z,40.7
2017-07-09T03:59:55.701Z,40.7
2017-07-09T04:00:55.882Z,40.7
2017-07-09T04:01:59.290Z,40.7
2017-07-09T04:02:57.789Z,40.6
2017-07-09T04:03:56.248Z,40.6
2017-07-09T04:04:55.951Z,40.7
2017-07-09T04:05:59.382Z,40.7
2017-07-09T04:06:58.013Z,40.7
2017-07-09T04:07:58.193Z,40.7
2017-07-09T04:08:56.210Z,40.8
2017-07-09T04:09:56.559Z,40.8
2017-07-09T04:10:59.601Z,40.8
2017-07-09T04:11:59.700Z,40.8
2017-07-09T04:12:56.406Z,40.7
2017-07-09T04:13:59.741Z,40.7
2017-07-09T04:14:58.352Z,40.6
2017-07-09T04:15:56.771Z,40.7
2017-07-09T04:16:56.508Z,40.6
2017-07-09T04:17:56.540Z,40.7
2017-07-09T04:18:56.562Z,40.6
2017-07-09T04:19:56.652Z,40.5
2017-07-09T04:20:59.929Z,40.5
2017-07-09T04:21:56.918Z,40.5
2017-07-09T04:22:58.615Z,40.5
2017-07-09T04:23:56.919Z,40.5
2017-07-09T04:24:56.821Z,40.5
2017-07-09T04:25:58.837Z,40.5
2017-07-09T04:27:00.234Z,40.6
2017-07-09T04:27:57.231Z,40.6
2017-07-09T04:28:58.988Z,40.6
2017-07-09T04:29:57.108Z,40.7
2017-07-09T04:30:57.012Z,40.7
2017-07-09T04:31:57.744Z,40.6
2017-07-09T04:32:57.143Z,40.6
2017-07-09T04:33:57.536Z,40.6
2017-07-09T04:34:57.167Z,40.5
2017-07-09T04:35:59.161Z,40.5
2017-07-09T04:36:58.248Z,40.4
2017-07-09T04:37:58.178Z,40.4
2017-07-09T04:38:57.680Z,40.4
2017-07-09T04:39:59.648Z,40.4
2017-07-09T04:40:57.767Z,40.4
2017-07-09T04:41:59.471Z,40.4
2017-07-09T04:42:58.228Z,40.4
2017-07-09T04:44:00.019Z,40.4
2017-07-09T04:44:57.631Z,40.3
2017-07-09T04:45:57.992Z,40.3
2017-07-09T04:47:01.151Z,40.4
2017-07-09T04:47:57.823Z,40.3
2017-07-09T04:49:01.413Z,40.2
2017-07-09T04:49:57.806Z,40.1
2017-07-09T04:51:00.080Z,40.1
2017-07-09T04:52:01.712Z,40.1
2017-07-09T04:52:58.500Z,40
2017-07-09T04:53:58.496Z,40
2017-07-09T04:54:58.732Z,39.9
2017-07-09T04:56:02.053Z,39.9
2017-07-09T04:57:02.175Z,39.8
2017-07-09T04:58:01.160Z,39.7
2017-07-09T04:58:58.940Z,39.7
2017-07-09T05:00:02.005Z,39.7
2017-07-09T05:01:01.876Z,39.7
2017-07-09T05:01:58.596Z,39.7
2017-07-09T05:02:58.928Z,39.8
2017-07-09T05:03:59.399Z,39.8
2017-07-09T05:04:58.824Z,39.8
2017-07-09T05:06:00.453Z,39.9
2017-07-09T05:06:58.720Z,40
2017-07-09T05:07:58.786Z,40
2017-07-09T05:09:00.733Z,40
2017-07-09T05:10:01.003Z,40
2017-07-09T05:11:02.219Z,40
2017-07-09T05:11:58.994Z,39.9
2017-07-09T05:12:58.900Z,39.8
2017-07-09T05:14:00.869Z,39.8
2017-07-09T05:15:01.015Z,39.8
2017-07-09T05:15:59.457Z,39.7
2017-07-09T05:16:59.218Z,39.8
2017-07-09T05:18:03.187Z,39.8
2017-07-09T05:18:59.372Z,39.8
2017-07-09T05:19:59.380Z,39.7
2017-07-09T05:21:02.666Z,39.8
2017-07-09T05:22:01.599Z,39.8
2017-07-09T05:23:02.823Z,39.8
2017-07-09T05:24:02.913Z,39.7
2017-07-09T05:25:02.958Z,39.7
2017-07-09T05:26:03.046Z,39.6
2017-07-09T05:26:59.757Z,39.6
2017-07-09T05:28:02.201Z,39.6
2017-07-09T05:28:59.867Z,39.6
2017-07-09T05:30:01.872Z,39.6
2017-07-09T05:31:00.068Z,39.5
2017-07-09T05:32:03.339Z,39.6
2017-07-09T05:33:02.062Z,39.6
2017-07-09T05:34:02.445Z,39.6
2017-07-09T05:35:00.142Z,39.6
2017-07-09T05:36:03.568Z,39.6
2017-07-09T05:37:00.267Z,39.6
2017-07-09T05:38:00.308Z,39.6
2017-07-09T05:39:03.758Z,39.7
2017-07-09T05:40:00.784Z,39.7
2017-07-09T05:49:30.859Z,39.3
2017-07-09T05:50:28.590Z,39.3
2017-07-09T05:51:31.976Z,39.3
2017-07-09T05:52:28.714Z,39.4
2017-07-09T05:53:32.085Z,39.4
2017-07-09T05:54:32.140Z,39.3
2017-07-09T05:55:29.163Z,39.4
2017-07-09T05:56:29.031Z,39.4
2017-07-09T05:57:32.368Z,39.4
2017-07-09T05:58:31.092Z,39.3
2017-07-09T05:59:29.158Z,39.3
2017-07-09T06:00:32.482Z,39.3
2017-07-09T06:01:29.547Z,39.2
2017-07-09T06:02:32.529Z,39.1
2017-07-09T06:03:29.337Z,39.1
2017-07-09T06:04:29.375Z,39
2017-07-09T06:05:29.419Z,38.9
2017-07-09T06:06:29.467Z,38.9
2017-07-09T06:07:32.963Z,38.9
2017-07-09T06:08:29.446Z,38.8
2017-07-09T06:09:29.670Z,38.8
2017-07-09T06:10:29.701Z,38.9
2017-07-09T06:11:29.689Z,38.9
2017-07-09T06:12:31.682Z,39
2017-07-09T06:13:30.109Z,39.1
2017-07-09T06:14:29.939Z,39.1
2017-07-09T06:15:29.940Z,39
2017-07-09T06:16:29.961Z,39
2017-07-09T06:17:33.375Z,39
2017-07-09T06:18:30.001Z,39
2017-07-09T06:19:32.259Z,39
2017-07-09T06:20:32.041Z,39
2017-07-09T06:21:32.176Z,38.9
2017-07-09T06:22:33.516Z,38.9
2017-07-09T06:23:33.620Z,38.8
2017-07-09T06:24:33.571Z,38.7
2017-07-09T06:25:30.620Z,38.6
2017-07-09T06:26:33.665Z,38.7
2017-07-09T06:27:32.303Z,38.8
2017-07-09T06:28:30.569Z,38.8
2017-07-09T06:29:33.973Z,38.7
2017-07-09T06:30:30.579Z,38.7
2017-07-09T06:31:32.928Z,38.6
2017-07-09T06:32:34.197Z,38.5
2017-07-09T06:33:32.802Z,38.4
2017-07-09T06:34:30.953Z,38.3
2017-07-09T06:35:34.178Z,38.2
2017-07-09T06:36:30.933Z,38.2
2017-07-09T06:37:34.737Z,38.2
2017-07-09T06:38:31.040Z,38.2
2017-07-09T06:39:31.093Z,38.2
2017-07-09T06:40:31.180Z,38.2
2017-07-09T06:41:31.234Z,38.3
2017-07-09T06:42:31.329Z,38.3
2017-07-09T06:43:33.638Z,38.4
2017-07-09T06:44:34.745Z,38.4
2017-07-09T06:45:31.331Z,38.4
2017-07-09T06:46:34.781Z,38.4
2017-07-09T06:47:31.662Z,38.5
2017-07-09T06:48:34.895Z,38.5
2017-07-09T06:49:31.866Z,38.5
2017-07-09T06:50:35.033Z,38.4
2017-07-09T06:51:35.044Z,38.3
2017-07-09T06:52:35.181Z,38.3
2017-07-09T06:53:35.208Z,38.2
2017-07-09T06:54:35.309Z,38.1
2017-07-09T06:55:32.277Z,38.1
2017-07-09T06:56:33.888Z,38
2017-07-09T06:57:32.021Z,38
2017-07-09T06:58:35.506Z,38
2017-07-09T06:59:32.163Z,38
2017-07-09T07:00:32.224Z,38
2017-07-09T07:01:32.507Z,38.1
2017-07-09T07:02:35.794Z,38.2
2017-07-09T07:03:32.405Z,38.3
2017-07-09T07:04:32.481Z,38.3
2017-07-09T07:05:32.633Z,38.3
2017-07-09T07:06:35.947Z,38.4
2017-07-09T07:07:35.002Z,38.5
2017-07-09T07:08:34.671Z,38.5
2017-07-09T07:09:36.080Z,38.5
2017-07-09T07:10:34.770Z,38.5
2017-07-09T07:11:34.777Z,38.4
2017-07-09T07:12:34.755Z,38.3
2017-07-09T07:13:35.172Z,38.3
2017-07-09T07:14:32.909Z,38.3
2017-07-09T07:15:33.028Z,38.2
2017-07-09T07:16:36.419Z,38.2
2017-07-09T07:17:32.997Z,38.1
2017-07-09T07:18:33.149Z,38.1
2017-07-09T07:19:33.390Z,38
2017-07-09T07:20:33.237Z,38
2017-07-09T07:21:35.145Z,37.9
2017-07-09T07:22:36.623Z,37.9
2017-07-09T07:23:35.296Z,37.8
2017-07-09T07:24:33.300Z,37.8
2017-07-09T07:25:33.634Z,37.8
2017-07-09T07:26:35.381Z,37.7
2017-07-09T07:27:33.527Z,37.6
2017-07-09T07:28:36.973Z,37.5
2017-07-09T07:29:33.593Z,37.4
2017-07-09T07:30:35.606Z,37.4
2017-07-09T07:31:33.954Z,37.4
2017-07-09T07:32:33.703Z,37.4
2017-07-09T07:33:33.772Z,37.4
2017-07-09T07:34:37.181Z,37.5
2017-07-09T07:35:33.926Z,37.6
2017-07-09T07:36:34.023Z,37.7
2017-07-09T07:37:34.341Z,37.8
2017-07-09T07:38:37.490Z,37.8
2017-07-09T07:39:36.249Z,37.8
2017-07-09T07:40:36.236Z,37.8
2017-07-09T07:41:36.391Z,37.7
2017-07-09T07:42:34.505Z,37.7
2017-07-09T07:43:34.841Z,37.6
2017-07-09T07:44:37.846Z,37.6
2017-07-09T07:45:34.614Z,37.7
2017-07-09T07:46:34.607Z,37.7
2017-07-09T07:47:36.684Z,37.7
2017-07-09T07:48:34.869Z,37.6
2017-07-09T07:49:37.043Z,37.6
2017-07-09T07:50:38.265Z,37.6
2017-07-09T07:51:38.323Z,37.6
2017-07-09T07:52:38.489Z,37.5
2017-07-09T07:53:35.194Z,37.4
2017-07-09T07:54:35.276Z,37.3
2017-07-09T07:55:37.570Z,37.1
2017-07-09T07:56:35.321Z,37.1
2017-07-09T07:57:38.739Z,37.1
2017-07-09T07:58:35.540Z,37
2017-07-09T07:59:35.477Z,36.9
2017-07-09T08:00:38.870Z,36.8
2017-07-09T08:01:37.864Z,36.8
2017-07-09T08:02:35.628Z,36.7
2017-07-09T08:03:35.758Z,36.7
2017-07-09T08:04:41.370Z,36.6
2017-07-09T08:05:37.834Z,36.6
2017-07-09T08:06:35.878Z,36.6
2017-07-09T08:07:38.260Z,36.6
2017-07-09T08:08:36.073Z,36.6
2017-07-09T08:09:38.113Z,36.6
2017-07-09T08:10:39.546Z,36.6
2017-07-09T08:11:36.098Z,36.7
2017-07-09T08:12:36.253Z,36.6
2017-07-09T08:13:36.473Z,36.6
2017-07-09T08:14:39.703Z,36.5
2017-07-09T08:15:36.351Z,36.5
2017-07-09T08:16:39.823Z,36.5
2017-07-09T08:17:36.443Z,36.4
2017-07-09T08:18:38.465Z,36.3
2017-07-09T08:19:40.109Z,36.3
2017-07-09T08:20:39.973Z,36.3
2017-07-09T08:21:39.951Z,36.3
2017-07-09T08:22:36.660Z,36.4
2017-07-09T08:23:39.359Z,36.4
2017-07-09T08:24:36.820Z,36.5
2017-07-09T08:25:39.048Z,36.6
2017-07-09T08:26:36.984Z,36.6
2017-07-09T08:27:37.018Z,36.7
2017-07-09T08:28:39.021Z,36.7
2017-07-09T08:29:37.041Z,36.8
2017-07-09T08:30:37.177Z,36.8
2017-07-09T08:31:37.593Z,36.9
2017-07-09T08:32:37.292Z,36.9
2017-07-09T08:33:37.340Z,37
2017-07-09T08:34:40.631Z,37.1
2017-07-09T08:35:37.408Z,37.1
2017-07-09T08:36:39.428Z,37.1
2017-07-09T08:37:37.846Z,37.1
2017-07-09T08:38:40.881Z,37.1
2017-07-09T08:39:39.657Z,37.1
2017-07-09T08:40:39.783Z,37.1
2017-07-09T08:41:37.856Z,37.1
2017-07-09T08:42:39.828Z,37.1
2017-07-09T08:43:40.074Z,37.1
2017-07-09T08:44:39.926Z,37.1
2017-07-09T08:45:40.064Z,37.2
2017-07-09T08:46:40.107Z,37.2
2017-07-09T08:47:38.247Z,37.2
2017-07-09T08:48:38.366Z,37.2
2017-07-09T08:49:41.922Z,37.2
2017-07-09T08:50:38.327Z,37.2
2017-07-09T08:51:38.484Z,37.2
2017-07-09T08:52:38.505Z,37.3
2017-07-09T08:53:38.583Z,37.3
2017-07-09T08:54:40.466Z,37.2
2017-07-09T08:55:40.881Z,37.3
2017-07-09T08:56:38.671Z,37.3
2017-07-09T08:57:42.193Z,37.3
2017-07-09T08:58:38.936Z,37.3
2017-07-09T08:59:40.837Z,37.3
2017-07-09T09:00:38.826Z,37.3
2017-07-09T09:01:41.148Z,37.3
2017-07-09T09:02:38.925Z,37.3
2017-07-09T09:03:39.043Z,37.3
2017-07-09T09:04:39.081Z,37.3
2017-07-09T09:05:39.097Z,37.3
2017-07-09T09:06:41.169Z,37.4
2017-07-09T09:07:42.824Z,37.4
2017-07-09T09:08:39.350Z,37.4
2017-07-09T09:09:41.266Z,37.4
2017-07-09T09:10:39.492Z,37.4
2017-07-09T09:11:41.373Z,37.4
2017-07-09T09:12:42.867Z,37.4
2017-07-09T09:13:40.020Z,37.4
2017-07-09T09:14:43.001Z,37.4
2017-07-09T09:15:43.140Z,37.4
2017-07-09T09:16:39.810Z,37.3
2017-07-09T09:17:41.764Z,37.3
2017-07-09T09:19:22.046Z,37.3
2017-07-09T09:20:21.789Z,37.3
2017-07-09T09:21:21.710Z,37.3
2017-07-09T09:22:21.799Z,37.3
2017-07-09T09:23:23.799Z,37.3
2017-07-09T09:24:23.834Z,37.3
2017-07-09T09:25:25.604Z,37.3
2017-07-09T09:26:23.874Z,37.3
2017-07-09T09:27:22.016Z,37.3
2017-07-09T09:28:21.933Z,37.3
2017-07-09T09:29:22.067Z,37.3
2017-07-09T09:30:22.197Z,37.3
2017-07-09T09:31:22.445Z,37.3
2017-07-09T09:32:22.302Z,37.3
2017-07-09T09:33:24.256Z,37.3
2017-07-09T09:34:24.421Z,37.3
2017-07-09T09:35:22.534Z,37.3
2017-07-09T09:36:22.464Z,37.3
2017-07-09T09:37:24.723Z,37.3
2017-07-09T09:38:25.885Z,37.3
2017-07-09T09:39:24.591Z,37.3
2017-07-09T09:40:22.643Z,37.3
2017-07-09T09:41:26.118Z,37.3
2017-07-09T09:42:22.893Z,37.3
2017-07-09T09:43:23.240Z,37.4
2017-07-09T09:44:22.899Z,37.4
2017-07-09T09:45:22.913Z,37.4
2017-07-09T09:46:22.964Z,37.3
2017-07-09T09:47:26.379Z,37.3
2017-07-09T09:48:26.448Z,37.3
2017-07-09T09:49:25.343Z,37.3
2017-07-09T09:50:25.001Z,37.3
2017-07-09T09:51:26.535Z,37.3
2017-07-09T09:52:23.118Z,37.3
2017-07-09T09:53:25.163Z,37.4
2017-07-09T09:54:26.617Z,37.4
2017-07-09T09:55:26.840Z,37.4
2017-07-09T09:56:23.324Z,37.4
2017-07-09T09:57:23.421Z,37.4
2017-07-09T09:58:25.365Z,37.4
2017-07-09T09:59:23.507Z,37.4
2017-07-09T10:00:23.511Z,37.4
2017-07-09T10:01:24.338Z,37.4
2017-07-09T10:02:24.172Z,37.4
2017-07-09T10:03:25.974Z,37.3
2017-07-09T10:04:24.211Z,37.4
2017-07-09T10:05:26.116Z,37.4
2017-07-09T10:06:27.636Z,37.4
2017-07-09T10:07:26.300Z,37.4
2017-07-09T10:08:27.706Z,37.4
2017-07-09T10:09:24.413Z,37.4
2017-07-09T10:10:27.778Z,37.4
2017-07-09T10:11:27.903Z,37.4
2017-07-09T10:12:26.416Z,37.4
2017-07-09T10:13:28.122Z,37.4
2017-07-09T10:14:24.730Z,37.3
2017-07-09T10:15:24.718Z,37.3
2017-07-09T10:16:24.724Z,37.3
2017-07-09T10:17:24.846Z,37.3
2017-07-09T10:18:28.327Z,37.3
2017-07-09T10:19:28.479Z,37.3
2017-07-09T10:20:24.884Z,37.3
2017-07-09T10:21:28.248Z,37.3
2017-07-09T10:22:28.286Z,37.3
2017-07-09T10:23:26.839Z,37.3
2017-07-09T10:24:25.009Z,37.3
2017-07-09T10:25:25.212Z,37.2
2017-07-09T10:26:26.987Z,37.2
2017-07-09T10:27:28.545Z,37.2
2017-07-09T10:28:28.605Z,37.2
2017-07-09T10:29:27.126Z,37.2
2017-07-09T10:30:25.261Z,37.2
2017-07-09T10:31:27.414Z,37.1
2017-07-09T10:32:26.806Z,37.1
2017-07-09T10:33:28.293Z,37.1
2017-07-09T10:34:28.479Z,37.1
2017-07-09T10:35:25.204Z,37
2017-07-09T10:36:27.058Z,37
2017-07-09T10:37:25.575Z,37
2017-07-09T10:38:28.592Z,37
2017-07-09T10:39:25.270Z,37
2017-07-09T10:40:27.337Z,37
2017-07-09T10:41:25.428Z,37
2017-07-09T10:42:25.424Z,37
2017-07-09T10:43:27.820Z,37
2017-07-09T10:44:27.444Z,37
2017-07-09T10:45:25.699Z,37
2017-07-09T10:46:25.631Z,37
2017-07-09T10:47:27.683Z,37
2017-07-09T10:48:29.144Z,37
2017-07-09T10:49:26.113Z,37
2017-07-09T10:50:25.815Z,37
2017-07-09T10:51:27.789Z,37
2017-07-09T10:52:25.875Z,37
2017-07-09T10:53:29.265Z,37
2017-07-09T10:54:26.022Z,37
2017-07-09T10:55:26.239Z,37
2017-07-09T10:56:29.330Z,37
2017-07-09T10:57:26.069Z,37
2017-07-09T10:58:26.843Z,37
2017-07-09T10:59:29.551Z,37
2017-07-09T11:00:26.248Z,37
2017-07-09T11:01:28.436Z,37
2017-07-09T11:02:26.256Z,37
2017-07-09T11:03:29.622Z,37
2017-07-09T11:04:26.250Z,37
2017-07-09T11:05:29.648Z,37
2017-07-09T11:06:29.717Z,37
2017-07-09T11:07:30.062Z,37
2017-07-09T11:08:26.441Z,37
2017-07-09T11:09:28.484Z,37
2017-07-09T11:10:26.639Z,37
2017-07-09T11:11:26.750Z,37
2017-07-09T11:12:26.882Z,37
2017-07-09T11:13:29.055Z,37
2017-07-09T11:14:26.853Z,37
2017-07-09T11:15:28.842Z,37
2017-07-09T11:16:27.058Z,37
2017-07-09T11:17:29.046Z,37
2017-07-09T11:18:28.967Z,37
2017-07-09T11:19:30.844Z,37
2017-07-09T11:20:30.510Z,37
2017-07-09T11:21:27.277Z,36.9
2017-07-09T11:22:29.229Z,36.9
2017-07-09T11:23:27.386Z,36.9
2017-07-09T11:24:29.285Z,36.9
2017-07-09T11:25:27.702Z,36.9
2017-07-09T11:26:27.516Z,36.9
2017-07-09T11:27:29.440Z,36.8
2017-07-09T11:28:27.607Z,36.8
2017-07-09T11:29:27.752Z,36.8
2017-07-09T11:30:27.796Z,36.8
2017-07-09T11:31:28.056Z,36.8
2017-07-09T11:32:27.843Z,36.8
2017-07-09T11:33:27.986Z,36.8
2017-07-09T11:34:27.986Z,36.8
2017-07-09T11:35:28.052Z,36.8
2017-07-09T11:36:28.017Z,36.8
2017-07-09T11:37:31.728Z,36.8
2017-07-09T11:38:28.149Z,36.9
2017-07-09T11:39:28.203Z,36.8
2017-07-09T11:40:31.503Z,36.8
2017-07-09T11:41:30.138Z,36.8
2017-07-09T11:42:31.638Z,36.8
2017-07-09T11:43:28.761Z,36.8
2017-07-09T11:44:28.509Z,36.8
2017-07-09T11:45:31.803Z,36.8
2017-07-09T11:46:28.620Z,36.8
2017-07-09T11:47:30.533Z,36.8
2017-07-09T11:48:32.039Z,36.7
2017-07-09T11:49:32.323Z,36.7
2017-07-09T11:50:30.564Z,36.7
2017-07-09T11:51:30.701Z,36.7
2017-07-09T11:52:30.701Z,36.7
2017-07-09T11:53:32.231Z,36.7
2017-07-09T11:54:32.159Z,36.7
2017-07-09T11:55:29.135Z,36.7
2017-07-09T11:56:28.999Z,36.7
2017-07-09T11:57:30.840Z,36.7
2017-07-09T11:58:29.019Z,36.7
2017-07-09T11:59:32.407Z,36.7
2017-07-09T12:00:32.428Z,36.6
2017-07-09T12:01:31.235Z,36.6
2017-07-09T12:02:29.206Z,36.6
2017-07-09T12:03:32.508Z,36.6
2017-07-09T12:04:29.347Z,36.6
2017-07-09T12:05:29.259Z,36.6
2017-07-09T12:06:29.342Z,36.6
2017-07-09T12:07:31.547Z,36.5
2017-07-09T12:08:29.468Z,36.5
2017-07-09T12:09:32.751Z,36.5
2017-07-09T12:10:29.576Z,36.5
2017-07-09T12:11:29.673Z,36.5
2017-07-09T12:12:29.577Z,36.5
2017-07-09T12:13:29.955Z,36.4
2017-07-09T12:14:32.992Z,36.4
2017-07-09T12:15:29.762Z,36.4
2017-07-09T12:16:29.768Z,36.4
2017-07-09T12:17:31.773Z,36.4
2017-07-09T12:18:33.138Z,36.4
2017-07-09T12:19:31.987Z,36.3
2017-07-09T12:20:31.813Z,36.3
2017-07-09T12:21:29.883Z,36.3
2017-07-09T12:22:33.306Z,36.3
2017-07-09T12:23:29.977Z,36.3
2017-07-09T12:24:33.471Z,36.3
2017-07-09T12:25:30.406Z,36.3
2017-07-09T12:26:30.296Z,36.2
2017-07-09T12:27:30.247Z,36.2
2017-07-09T12:28:32.317Z,36.2
2017-07-09T12:29:30.396Z,36.2
2017-07-09T12:30:33.805Z,36.2
2017-07-09T12:31:30.870Z,36.2
2017-07-09T12:32:30.480Z,36.2
2017-07-09T12:33:32.459Z,36.2
2017-07-09T12:34:33.845Z,36.2
2017-07-09T12:35:30.665Z,36.2
2017-07-09T12:36:30.716Z,36.2
2017-07-09T12:37:32.869Z,36.2
2017-07-09T12:38:34.111Z,36.1
2017-07-09T12:39:30.796Z,36.1
2017-07-09T12:40:30.933Z,36.1
2017-07-09T12:41:30.994Z,36.1
2017-07-09T12:42:32.908Z,36.1
2017-07-09T12:43:31.408Z,36.1
2017-07-09T12:44:34.473Z,36.1
2017-07-09T12:45:34.547Z,36.1
2017-07-09T12:46:31.172Z,36.1
2017-07-09T12:47:33.114Z,36
2017-07-09T12:48:31.965Z,36
2017-07-09T12:49:33.456Z,36
2017-07-09T12:50:31.337Z,36
2017-07-09T12:51:33.297Z,36
2017-07-09T12:52:34.801Z,36
2017-07-09T12:53:34.845Z,36
2017-07-09T12:54:33.481Z,36
2017-07-09T12:55:31.878Z,36
2017-07-09T12:56:33.575Z,36
2017-07-09T12:57:33.686Z,36
2017-07-09T12:58:33.677Z,36
2017-07-09T12:59:33.811Z,36
2017-07-09T13:00:33.792Z,35.9
2017-07-09T13:01:34.061Z,35.9
2017-07-09T13:02:33.910Z,35.9
2017-07-09T13:03:32.048Z,35.9
2017-07-09T13:04:32.094Z,35.9
2017-07-09T13:05:35.503Z,35.9
2017-07-09T13:06:35.443Z,35.9
2017-07-09T13:07:32.632Z,35.9
2017-07-09T13:08:32.208Z,35.9
2017-07-09T13:09:35.600Z,35.8
2017-07-09T13:10:32.463Z,35.8
2017-07-09T13:11:32.449Z,35.8
2017-07-09T13:12:34.315Z,35.8
2017-07-09T13:13:32.797Z,35.8
2017-07-09T13:14:32.466Z,35.8
2017-07-09T13:15:34.551Z,35.7
2017-07-09T13:16:34.451Z,35.7
2017-07-09T13:17:34.625Z,35.7
2017-07-09T13:18:34.697Z,35.7
2017-07-09T13:19:33.105Z,35.6
2017-07-09T13:20:32.876Z,35.6
2017-07-09T13:21:32.888Z,35.6
2017-07-09T13:22:32.930Z,35.6
2017-07-09T13:23:34.955Z,35.6
2017-07-09T13:24:35.116Z,35.6
2017-07-09T13:25:33.462Z,35.6
2017-07-09T13:26:36.463Z,35.6
2017-07-09T13:27:33.139Z,35.6
2017-07-09T13:28:36.615Z,35.6
2017-07-09T13:29:35.247Z,35.5
2017-07-09T13:30:36.607Z,35.5
2017-07-09T13:31:37.711Z,35.5
2017-07-09T13:32:34.080Z,35.5
2017-07-09T13:33:35.447Z,35.5
2017-07-09T13:34:33.564Z,35.5
2017-07-09T13:35:35.444Z,35.5